Time;durP1;ratioP1;P1;durP2;ratioP2;P2;SDS_P1;SDS_P2;PMS_P1;PMS_P2;Temp;Humidity;BMP_temperature;BMP_pressure;BME280_temperature;BME280_humidity;BME280_pressure;Samples;Min_cycle;Max_cycle;Signal;HPM_P1;HPM_P2
2022/08/28 00:02:32;;;;;;;13.48;7.82;;;;;;;;;;5055560;28;20041;-81
2022/08/28 00:05:19;;;;;;;11.55;7.50;;;;;;;;;;5052580;28;20033;-82
2022/08/28 00:08:06;;;;;;;11.73;7.88;;;;;;;;;;5053937;28;20037;-81
2022/08/28 00:10:52;;;;;;;10.05;7.25;;;;;;;;;;5054961;28;20045;-82
2022/08/28 00:13:37;;;;;;;11.52;7.15;;;;;;;;;;5052025;28;20041;-82
2022/08/28 00:16:23;;;;;;;9.75;7.70;;;;;;;;;;5060530;28;20041;-82
2022/08/28 00:19:09;;;;;;;13.55;7.15;;;;;;;;;;5052604;28;20380;-81
2022/08/28 00:21:54;;;;;;;12.30;7.88;;;;;;;;;;5059174;28;20045;-83
2022/08/28 00:24:41;;;;;;;11.27;7.75;;;;;;;;;;5059701;28;20380;-86
2022/08/28 00:28:14;;;;;;;12.45;8.27;;;;;;;;;;5051581;28;20383;-83
2022/08/28 00:30:43;;;;;;;11.07;7.13;;;;;;;;;;5052794;28;20049;-82
2022/08/28 00:33:33;;;;;;;11.77;7.55;;;;;;;;;;5052639;28;20028;-84
2022/08/28 00:36:18;;;;;;;14.32;6.72;;;;;;;;;;5050826;28;20041;-83
2022/08/28 00:39:05;;;;;;;12.57;7.00;;;;;;;;;;5059133;28;20571;-84
2022/08/28 00:41:51;;;;;;;13.38;7.90;;;;;;;;;;5053244;28;20032;-84
2022/08/28 00:44:36;;;;;;;16.65;7.35;;;;;;;;;;5054426;28;20049;-81
2022/08/28 00:47:23;;;;;;;11.68;7.18;;;;;;;;;;5054145;28;20036;-81
2022/08/28 00:50:12;;;;;;;9.90;7.47;;;;;;;;;;5053156;28;20033;-83
2022/08/28 00:53:00;;;;;;;12.52;7.38;;;;;;;;;;5050322;28;20475;-82
2022/08/28 00:55:45;;;;;;;13.18;7.80;;;;;;;;;;5051955;28;20029;-82
2022/08/28 00:58:30;;;;;;;13.30;7.57;;;;;;;;;;5051415;28;20033;-82
2022/08/28 01:01:16;;;;;;;17.77;7.65;;;;;;;;;;5052198;28;20368;-81
2022/08/28 01:04:04;;;;;;;15.32;8.15;;;;;;;;;;5051166;28;20036;-81
2022/08/28 01:06:53;;;;;;;12.35;7.05;;;;;;;;;;5051789;28;20029;-83
2022/08/28 01:09:45;;;;;;;10.57;7.40;;;;;;;;;;5049995;28;20049;-82
2022/08/28 01:12:33;;;;;;;13.88;8.23;;;;;;;;;;5052314;28;20041;-85
2022/08/28 01:15:27;;;;;;;10.20;7.20;;;;;;;;;;5053379;28;20052;-86
2022/08/28 01:18:39;;;;;;;10.40;8.00;;;;;;;;;;5051479;28;20045;-85
2022/08/28 01:25:32;;;;;;;17.13;7.85;;;;;;;;;;5059539;28;20044;-82
2022/08/28 01:28:18;;;;;;;11.98;7.22;;;;;;;;;;5051504;28;20037;-81
2022/08/28 01:31:03;;;;;;;12.93;7.85;;;;;;;;;;5051970;28;20049;-80
2022/08/28 01:33:49;;;;;;;11.20;8.55;;;;;;;;;;5061210;28;20392;-82
2022/08/28 01:36:35;;;;;;;15.82;7.90;;;;;;;;;;5060196;28;20036;-80
2022/08/28 01:39:23;;;;;;;11.82;7.93;;;;;;;;;;5060522;28;20460;-80
2022/08/28 01:42:09;;;;;;;12.73;7.65;;;;;;;;;;5060200;28;20041;-80
2022/08/28 01:44:54;;;;;;;13.82;7.80;;;;;;;;;;5060856;28;20049;-80
2022/08/28 01:47:42;;;;;;;10.68;7.03;;;;;;;;;;5053637;28;20037;-79
2022/08/28 01:50:27;;;;;;;11.00;7.22;;;;;;;;;;5060209;28;20383;-81
2022/08/28 01:53:15;;;;;;;10.45;7.70;;;;;;;;;;5053858;28;20044;-80
2022/08/28 01:56:03;;;;;;;14.18;7.45;;;;;;;;;;5060175;28;20041;-80
2022/08/28 01:58:49;;;;;;;17.98;7.78;;;;;;;;;;5053627;28;20460;-82
2022/08/28 02:01:35;;;;;;;10.93;7.47;;;;;;;;;;5060270;28;20387;-80
2022/08/28 02:04:20;;;;;;;12.82;7.57;;;;;;;;;;5060180;28;20044;-79
2022/08/28 02:07:06;;;;;;;11.73;7.43;;;;;;;;;;5060307;28;20048;-79
2022/08/28 02:09:51;;;;;;;17.35;7.82;;;;;;;;;;5060038;28;20037;-81
2022/08/28 02:12:37;;;;;;;14.93;8.48;;;;;;;;;;5060413;28;20837;-81
2022/08/28 02:15:24;;;;;;;10.27;7.65;;;;;;;;;;5060398;28;20041;-81
2022/08/28 02:18:10;;;;;;;12.57;8.05;;;;;;;;;;5055323;28;20037;-81
2022/08/28 02:20:56;;;;;;;10.15;7.47;;;;;;;;;;5064476;28;20049;-79
2022/08/28 02:23:43;;;;;;;14.23;7.70;;;;;;;;;;5064923;28;20036;-78
2022/08/28 02:26:29;;;;;;;13.18;7.50;;;;;;;;;;5064943;28;20375;-80
2022/08/28 02:29:14;;;;;;;13.80;7.85;;;;;;;;;;5064087;28;20058;-79
2022/08/28 02:32:00;;;;;;;13.45;7.65;;;;;;;;;;5063893;28;20037;-78
2022/08/28 02:34:46;;;;;;;13.77;7.90;;;;;;;;;;5064027;28;20384;-81
2022/08/28 02:37:32;;;;;;;10.05;7.65;;;;;;;;;;5064259;28;20045;-79
2022/08/28 02:40:21;;;;;;;14.20;7.75;;;;;;;;;;5063809;28;20483;-82
2022/08/28 02:43:07;;;;;;;9.00;7.28;;;;;;;;;;5063618;28;20029;-79
2022/08/28 02:45:52;;;;;;;12.90;7.65;;;;;;;;;;5063639;28;20379;-80
2022/08/28 02:48:39;;;;;;;20.17;8.63;;;;;;;;;;5063638;28;20045;-81
2022/08/28 02:51:24;;;;;;;13.48;7.68;;;;;;;;;;5063552;28;20396;-80
2022/08/28 02:54:10;;;;;;;12.55;7.90;;;;;;;;;;5056459;28;20041;-80
2022/08/28 02:56:55;;;;;;;11.38;7.30;;;;;;;;;;5063891;28;20053;-81
2022/08/28 02:59:42;;;;;;;12.68;8.00;;;;;;;;;;5060355;28;20040;-82
2022/08/28 03:02:28;;;;;;;13.52;8.18;;;;;;;;;;5063199;28;20048;-79
2022/08/28 03:05:16;;;;;;;14.50;8.60;;;;;;;;;;5063429;28;20049;-81
2022/08/28 03:08:02;;;;;;;9.70;7.78;;;;;;;;;;5063022;28;20049;-80
2022/08/28 03:10:47;;;;;;;17.40;7.68;;;;;;;;;;5063539;28;20041;-82
2022/08/28 03:13:33;;;;;;;13.90;8.13;;;;;;;;;;5056453;28;20380;-80
2022/08/28 03:16:19;;;;;;;14.43;9.02;;;;;;;;;;5063180;28;20037;-80
2022/08/28 03:19:04;;;;;;;12.73;8.93;;;;;;;;;;5056783;28;20041;-80
2022/08/28 03:21:49;;;;;;;14.73;8.68;;;;;;;;;;5056029;28;20037;-79
2022/08/28 03:24:36;;;;;;;13.00;8.68;;;;;;;;;;5063498;28;20041;-80
2022/08/28 03:27:22;;;;;;;11.45;8.18;;;;;;;;;;5062691;28;20460;-81
2022/08/28 03:30:08;;;;;;;11.68;8.15;;;;;;;;;;5063048;28;20053;-81
2022/08/28 03:32:53;;;;;;;12.30;8.90;;;;;;;;;;5055877;28;20041;-78
2022/08/28 03:35:38;;;;;;;10.80;8.52;;;;;;;;;;5062422;28;20383;-79
2022/08/28 03:38:24;;;;;;;12.98;8.07;;;;;;;;;;5062883;28;20044;-81
2022/08/28 03:41:12;;;;;;;12.65;8.82;;;;;;;;;;5062394;28;20044;-80
2022/08/28 03:43:59;;;;;;;14.50;8.95;;;;;;;;;;5062884;28;20048;-78
2022/08/28 03:46:44;;;;;;;15.40;9.10;;;;;;;;;;5062911;28;20380;-81
2022/08/28 03:49:30;;;;;;;12.73;8.32;;;;;;;;;;5055840;28;20040;-80
2022/08/28 03:52:15;;;;;;;15.07;8.60;;;;;;;;;;5055677;28;20041;-79
2022/08/28 03:55:00;;;;;;;12.95;8.25;;;;;;;;;;5055505;28;20037;-77
2022/08/28 03:57:46;;;;;;;16.13;8.40;;;;;;;;;;5062272;28;20033;-81
2022/08/28 04:00:33;;;;;;;13.43;8.60;;;;;;;;;;5057847;28;20044;-79
2022/08/28 04:03:18;;;;;;;11.55;8.43;;;;;;;;;;5055622;28;20037;-79
2022/08/28 04:06:04;;;;;;;12.02;8.63;;;;;;;;;;5062361;28;20456;-79
2022/08/28 04:08:50;;;;;;;11.68;9.50;;;;;;;;;;5062246;28;20468;-81
2022/08/28 04:11:41;;;;;;;14.63;9.00;;;;;;;;;;5062262;28;20044;-80
2022/08/28 04:14:25;;;;;;;12.88;8.07;;;;;;;;;;5055357;28;20352;-81
2022/08/28 04:17:11;;;;;;;12.68;8.75;;;;;;;;;;5055179;28;20033;-80
2022/08/28 04:19:57;;;;;;;12.10;8.40;;;;;;;;;;5055190;28;20033;-81
2022/08/28 04:22:43;;;;;;;12.93;9.05;;;;;;;;;;5061785;28;20048;-80
2022/08/28 04:25:29;;;;;;;16.50;9.73;;;;;;;;;;5062069;28;20044;-80
2022/08/28 04:28:15;;;;;;;16.65;9.60;;;;;;;;;;5046663;28;20034;-79
2022/08/28 04:31:02;;;;;;;15.38;9.10;;;;;;;;;;5060204;28;20391;-79
2022/08/28 04:33:48;;;;;;;14.55;9.35;;;;;;;;;;5062078;28;20074;-80
2022/08/28 04:36:34;;;;;;;13.32;9.23;;;;;;;;;;5048746;28;20041;-81
2022/08/28 04:39:20;;;;;;;14.10;9.23;;;;;;;;;;5060154;28;20045;-80
2022/08/28 04:42:06;;;;;;;13.32;9.18;;;;;;;;;;5060725;28;20036;-80
2022/08/28 04:44:58;;;;;;;15.10;9.18;;;;;;;;;;5057953;28;20037;-81
2022/08/28 04:47:44;;;;;;;13.38;9.13;;;;;;;;;;5061710;28;20052;-80
2022/08/28 04:50:30;;;;;;;11.65;8.38;;;;;;;;;;5048364;28;20045;-80
2022/08/28 04:53:18;;;;;;;12.18;8.75;;;;;;;;;;5056046;28;20040;-79
2022/08/28 04:56:06;;;;;;;16.58;7.80;;;;;;;;;;5052295;28;20037;-79
2022/08/28 04:58:51;;;;;;;17.50;9.00;;;;;;;;;;5051002;28;20045;-81
2022/08/28 05:01:38;;;;;;;19.83;8.90;;;;;;;;;;5040040;28;20045;-80
2022/08/28 05:04:24;;;;;;;14.88;8.93;;;;;;;;;;5051393;28;20041;-78
2022/08/28 05:07:09;;;;;;;13.32;8.43;;;;;;;;;;5047086;28;20037;-81
2022/08/28 05:09:54;;;;;;;10.82;7.38;;;;;;;;;;5054890;28;20041;-79
2022/08/28 05:12:40;;;;;;;12.50;7.38;;;;;;;;;;5058220;28;20041;-79
2022/08/28 05:15:26;;;;;;;11.68;7.70;;;;;;;;;;5052329;28;20041;-80
2022/08/28 05:18:13;;;;;;;12.98;7.07;;;;;;;;;;5060982;28;20460;-80
2022/08/28 05:21:00;;;;;;;15.23;7.45;;;;;;;;;;5060345;28;20049;-81
2022/08/28 05:23:52;;;;;;;13.70;7.07;;;;;;;;;;5060989;28;20468;-81
2022/08/28 05:26:38;;;;;;;14.77;6.70;;;;;;;;;;5060474;28;20037;-82
2022/08/28 05:29:23;;;;;;;12.13;6.82;;;;;;;;;;5054571;28;20367;-81
2022/08/28 05:32:09;;;;;;;10.38;6.53;;;;;;;;;;5060471;28;20486;-81
2022/08/28 05:34:54;;;;;;;12.15;6.50;;;;;;;;;;5060093;28;20036;-83
2022/08/28 05:37:40;;;;;;;15.10;5.68;;;;;;;;;;5060575;28;20152;-81
2022/08/28 05:40:26;;;;;;;11.25;5.53;;;;;;;;;;5038356;28;20041;-81
2022/08/28 05:43:13;;;;;;;12.95;6.07;;;;;;;;;;5059149;28;20387;-81
2022/08/28 05:46:10;;;;;;;9.30;6.15;;;;;;;;;;5058810;28;20041;-81
2022/08/28 05:48:56;;;;;;;12.00;5.88;;;;;;;;;;5057262;28;20049;-81
2022/08/28 05:51:41;;;;;;;8.82;5.40;;;;;;;;;;5060508;28;20037;-80
2022/08/28 05:54:27;;;;;;;8.32;5.90;;;;;;;;;;5051494;28;20375;-80
2022/08/28 05:57:12;;;;;;;10.48;7.05;;;;;;;;;;5042257;28;20029;-80
2022/08/28 05:59:58;;;;;;;10.27;7.45;;;;;;;;;;5037052;28;20053;-81
2022/08/28 06:02:43;;;;;;;11.30;6.70;;;;;;;;;;5041672;28;20044;-80
2022/08/28 06:05:29;;;;;;;11.88;7.00;;;;;;;;;;5048807;28;20057;-79
2022/08/28 06:08:14;;;;;;;13.60;6.18;;;;;;;;;;5039911;28;20041;-80
2022/08/28 06:11:01;;;;;;;13.93;5.97;;;;;;;;;;5040076;28;20033;-81
2022/08/28 06:13:46;;;;;;;12.52;6.38;;;;;;;;;;5047917;28;20484;-80
2022/08/28 06:16:33;;;;;;;9.45;6.75;;;;;;;;;;5059685;28;20037;-81
2022/08/28 06:19:21;;;;;;;13.18;6.75;;;;;;;;;;5044656;28;20045;-81
2022/08/28 06:22:09;;;;;;;18.35;6.43;;;;;;;;;;5040015;28;20045;-80
2022/08/28 06:24:54;;;;;;;16.95;6.68;;;;;;;;;;5040702;28;20041;-81
2022/08/28 06:27:40;;;;;;;10.35;6.30;;;;;;;;;;5040103;28;20050;-80
2022/08/28 06:30:25;;;;;;;13.00;5.60;;;;;;;;;;5032894;28;20037;-81
2022/08/28 06:33:15;;;;;;;11.05;5.30;;;;;;;;;;5033111;28;20476;-80
2022/08/28 06:36:03;;;;;;;8.63;4.85;;;;;;;;;;5032842;28;20384;-81
2022/08/28 06:38:49;;;;;;;13.77;5.68;;;;;;;;;;5046789;28;20387;-78
2022/08/28 06:41:39;;;;;;;7.13;4.78;;;;;;;;;;5059119;28;20460;-79
2022/08/28 06:44:26;;;;;;;14.75;9.38;;;;;;;;;;5051415;28;20040;-81
2022/08/28 06:47:13;;;;;;;11.52;5.22;;;;;;;;;;5050814;28;20045;-79
2022/08/28 06:49:58;;;;;;;11.80;5.68;;;;;;;;;;5039836;28;20045;-80
2022/08/28 06:52:44;;;;;;;10.52;5.18;;;;;;;;;;5032892;28;20037;-79
2022/08/28 06:55:29;;;;;;;8.80;5.00;;;;;;;;;;5043320;28;20049;-79
2022/08/28 06:58:15;;;;;;;8.98;4.85;;;;;;;;;;5045005;28;20373;-80
2022/08/28 07:01:03;;;;;;;10.80;5.00;;;;;;;;;;5035174;28;20045;-80
2022/08/28 07:03:53;;;;;;;13.73;5.28;;;;;;;;;;5050630;28;20037;-81
2022/08/28 07:06:44;;;;;;;10.88;4.97;;;;;;;;;;5039775;28;20049;-78
2022/08/28 07:09:30;;;;;;;6.50;4.35;;;;;;;;;;5043334;28;20045;-81
2022/08/28 07:12:16;;;;;;;12.07;5.32;;;;;;;;;;5041834;28;20049;-80
2022/08/28 07:15:03;;;;;;;8.23;5.30;;;;;;;;;;5045976;28;20412;-81
2022/08/28 07:17:48;;;;;;;9.10;5.25;;;;;;;;;;5046178;28;20045;-80
2022/08/28 07:20:33;;;;;;;10.73;5.32;;;;;;;;;;5036500;28;20049;-80
2022/08/28 07:23:19;;;;;;;7.85;4.25;;;;;;;;;;5060449;28;20048;-81
2022/08/28 07:26:11;;;;;;;8.77;5.03;;;;;;;;;;5050527;28;20037;-80
2022/08/28 07:28:56;;;;;;;9.07;4.38;;;;;;;;;;5041509;28;20045;-80
2022/08/28 07:31:44;;;;;;;9.77;5.13;;;;;;;;;;5051770;28;20037;-79
2022/08/28 07:34:28;;;;;;;8.77;4.80;;;;;;;;;;5056765;28;20041;-80
2022/08/28 07:37:14;;;;;;;8.98;4.63;;;;;;;;;;5063114;28;20037;-80
2022/08/28 07:40:00;;;;;;;10.18;4.65;;;;;;;;;;5065817;28;20384;-81
2022/08/28 07:46:08;;;;;;;7.85;5.50;;;;;;;;;;5060169;28;20037;-80
2022/08/28 07:48:54;;;;;;;9.52;4.45;;;;;;;;;;5057194;28;20380;-81
2022/08/28 07:51:39;;;;;;;11.48;5.03;;;;;;;;;;5049467;28;20037;-81
2022/08/28 07:54:25;;;;;;;10.32;4.60;;;;;;;;;;5057426;28;20048;-81
2022/08/28 07:57:10;;;;;;;10.25;4.45;;;;;;;;;;5046674;28;20049;-81
2022/08/28 07:59:56;;;;;;;11.10;4.93;;;;;;;;;;5046489;28;20395;-79
2022/08/28 08:02:42;;;;;;;14.30;4.15;;;;;;;;;;5052038;28;20041;-81
2022/08/28 08:05:27;;;;;;;10.90;6.28;;;;;;;;;;5057972;28;20376;-80
2022/08/28 08:08:13;;;;;;;12.65;5.25;;;;;;;;;;5063633;28;20044;-80
2022/08/28 08:11:05;;;;;;;14.75;4.80;;;;;;;;;;5054978;28;20464;-79
2022/08/28 08:13:53;;;;;;;8.75;4.60;;;;;;;;;;5037061;28;20389;-80
2022/08/28 08:16:42;;;;;;;9.13;4.35;;;;;;;;;;5043856;28;20045;-80
2022/08/28 08:19:27;;;;;;;9.90;5.03;;;;;;;;;;5035422;28;20384;-80
2022/08/28 08:22:12;;;;;;;8.15;4.30;;;;;;;;;;5041620;28;20468;-82
2022/08/28 08:24:58;;;;;;;11.93;5.32;;;;;;;;;;5039557;28;20049;-80
2022/08/28 08:27:43;;;;;;;7.60;4.63;;;;;;;;;;5040333;28;20037;-79
2022/08/28 08:30:29;;;;;;;8.57;4.90;;;;;;;;;;5043618;28;20045;-79
2022/08/28 08:33:15;;;;;;;10.60;4.82;;;;;;;;;;5061482;28;20052;-82
2022/08/28 08:36:00;;;;;;;8.82;5.30;;;;;;;;;;5061076;28;20041;-81
2022/08/28 08:38:47;;;;;;;11.10;4.40;;;;;;;;;;5057800;28;20044;-81
2022/08/28 08:41:50;;;;;;;11.10;5.15;;;;;;;;;;5044375;28;20045;-81
2022/08/28 08:44:41;;;;;;;12.90;5.05;;;;;;;;;;5048200;28;20045;-80
2022/08/28 08:47:40;;;;;;;8.63;5.18;;;;;;;;;;5061523;28;20041;-81
2022/08/28 08:50:32;;;;;;;9.23;5.20;;;;;;;;;;5054447;28;20045;-81
2022/08/28 08:53:21;;;;;;;13.90;5.10;;;;;;;;;;5061416;28;20383;-81
2022/08/28 08:56:12;;;;;;;8.05;4.80;;;;;;;;;;5060852;28;20531;-80
2022/08/28 08:59:01;;;;;;;11.52;4.65;;;;;;;;;;5061077;28;20376;-81
2022/08/28 09:02:03;;;;;;;8.02;4.82;;;;;;;;;;5059045;28;20040;-79
2022/08/28 09:05:03;;;;;;;12.43;5.05;;;;;;;;;;5053773;28;20045;-80
2022/08/28 09:07:56;;;;;;;11.15;4.95;;;;;;;;;;5050695;28;20052;-81
2022/08/28 09:10:50;;;;;;;13.27;5.10;;;;;;;;;;5057981;28;20049;-80
2022/08/28 09:13:51;;;;;;;9.32;4.82;;;;;;;;;;5061276;28;20049;-82
2022/08/28 09:16:41;;;;;;;8.80;4.45;;;;;;;;;;5059943;28;20045;-81
2022/08/28 09:19:27;;;;;;;13.73;5.35;;;;;;;;;;5054121;28;20040;-82
2022/08/28 09:22:12;;;;;;;12.85;5.22;;;;;;;;;;5060767;28;20045;-83
2022/08/28 09:24:58;;;;;;;8.20;4.30;;;;;;;;;;5053305;28;20375;-81
2022/08/28 09:27:51;;;;;;;9.57;4.38;;;;;;;;;;5046009;28;20041;-81
2022/08/28 09:30:36;;;;;;;8.55;4.55;;;;;;;;;;5052258;28;20388;-80
2022/08/28 09:33:39;;;;;;;7.40;4.53;;;;;;;;;;5058275;28;20052;-81
2022/08/28 09:36:36;;;;;;;12.23;4.50;;;;;;;;;;5056993;28;20462;-81
2022/08/28 09:39:22;;;;;;;8.27;4.70;;;;;;;;;;5033475;28;20045;-81
2022/08/28 09:45:31;;;;;;;7.75;4.90;;;;;;;;;;5039025;28;20044;-81
2022/08/28 09:48:38;;;;;;;8.98;4.10;;;;;;;;;;5060211;28;20049;-80
2022/08/28 09:51:24;;;;;;;14.10;5.05;;;;;;;;;;5032412;28;20053;-81
2022/08/28 09:54:40;;;;;;;6.95;4.30;;;;;;;;;;5042085;28;20041;-79
2022/08/28 09:57:25;;;;;;;11.35;4.45;;;;;;;;;;5040235;28;20041;-80
2022/08/28 10:00:12;;;;;;;6.97;4.05;;;;;;;;;;5038531;28;20041;-81
2022/08/28 10:03:06;;;;;;;9.32;4.80;;;;;;;;;;5057714;28;20041;-81
2022/08/28 10:06:26;;;;;;;6.68;3.88;;;;;;;;;;5053853;28;20037;-82
2022/08/28 10:09:26;;;;;;;9.25;3.92;;;;;;;;;;5043640;28;20045;-81
2022/08/28 10:12:18;;;;;;;11.82;4.50;;;;;;;;;;5053204;28;20484;-81
2022/08/28 10:15:48;;;;;;;11.98;4.15;;;;;;;;;;5052692;28;20417;-80
2022/08/28 10:18:43;;;;;;;7.55;4.50;;;;;;;;;;5050073;28;20100;-80
2022/08/28 10:21:38;;;;;;;;;;;;;;;;;;5040796;28;20049;-81
2022/08/28 10:24:48;;;;;;;9.77;4.30;;;;;;;;;;5038523;28;19912;-81
2022/08/28 10:28:16;;;;;;;10.00;4.70;;;;;;;;;;5034408;28;20049;-80
2022/08/28 10:31:40;;;;;;;12.20;4.32;;;;;;;;;;5043866;28;20034;-80
2022/08/28 10:34:42;;;;;;;11.60;4.72;;;;;;;;;;5030039;28;20392;-80
2022/08/28 10:37:49;;;;;;;9.98;4.70;;;;;;;;;;5044007;28;20045;-81
2022/08/28 10:40:39;;;;;;;9.93;4.38;;;;;;;;;;5042800;28;20041;-80
2022/08/28 10:43:35;;;;;;;9.80;4.45;;;;;;;;;;5051919;28;20033;-82
2022/08/28 10:46:44;;;;;;;11.30;5.00;;;;;;;;;;5048799;28;20041;-81
2022/08/28 10:49:42;;;;;;;11.73;4.65;;;;;;;;;;5045822;28;20044;-80
2022/08/28 10:52:34;;;;;;;7.25;4.30;;;;;;;;;;5059295;28;20045;-82
2022/08/28 10:55:22;;;;;;;7.35;3.90;;;;;;;;;;5041926;28;20053;-80
2022/08/28 10:58:10;;;;;;;9.65;4.68;;;;;;;;;;5056926;28;20045;-81
2022/08/28 11:01:01;;;;;;;13.57;4.80;;;;;;;;;;5056365;28;20045;-81
2022/08/28 11:03:51;;;;;;;12.57;4.53;;;;;;;;;;5056317;28;20464;-81
2022/08/28 11:06:42;;;;;;;11.82;4.78;;;;;;;;;;5061974;28;20045;-80
2022/08/28 11:09:34;;;;;;;11.55;4.38;;;;;;;;;;5048762;28;20041;-80
2022/08/28 11:12:19;;;;;;;13.93;4.80;;;;;;;;;;5036651;28;20038;-79
2022/08/28 11:15:26;;;;;;;15.68;4.90;;;;;;;;;;5043061;28;20041;-81
2022/08/28 11:18:16;;;;;;;10.55;4.10;;;;;;;;;;5036441;28;20038;-82
2022/08/28 11:21:26;;;;;;;12.57;4.72;;;;;;;;;;5043502;28;20041;-79
2022/08/28 11:24:38;;;;;;;10.93;4.65;;;;;;;;;;5040656;28;20037;-80
2022/08/28 11:27:32;;;;;;;11.57;4.88;;;;;;;;;;5041647;28;20045;-81
2022/08/28 11:30:31;;;;;;;12.27;4.55;;;;;;;;;;5047172;28;20045;-80
2022/08/28 11:33:51;;;;;;;15.35;5.22;;;;;;;;;;5043210;28;20041;-80
2022/08/28 11:36:36;;;;;;;9.20;4.50;;;;;;;;;;5056315;28;20464;-80
2022/08/28 11:39:22;;;;;;;9.68;4.75;;;;;;;;;;5055768;28;20041;-80
2022/08/28 11:42:12;;;;;;;13.27;4.57;;;;;;;;;;5062691;28;20053;-79
2022/08/28 11:44:57;;;;;;;11.20;4.78;;;;;;;;;;5062492;28;20049;-79
2022/08/28 11:47:46;;;;;;;12.75;4.50;;;;;;;;;;5055882;28;20037;-80
2022/08/28 11:50:50;;;;;;;13.35;4.70;;;;;;;;;;5055857;28;20049;-80
2022/08/28 11:53:42;;;;;;;15.40;4.95;;;;;;;;;;5055504;28;20048;-79
2022/08/28 11:56:41;;;;;;;15.00;4.53;;;;;;;;;;5055469;28;20084;-80
2022/08/28 11:59:58;;;;;;;9.18;4.50;;;;;;;;;;5042843;28;20380;-80
2022/08/28 12:02:48;;;;;;;12.45;4.82;;;;;;;;;;5062263;28;20041;-79
2022/08/28 12:05:39;;;;;;;9.25;4.63;;;;;;;;;;5047376;28;20049;-80
2022/08/28 12:08:43;;;;;;;9.90;4.57;;;;;;;;;;5042432;28;20380;-81
2022/08/28 12:11:40;;;;;;;13.73;5.97;;;;;;;;;;5038912;28;20045;-81
2022/08/28 12:14:26;;;;;;;13.55;5.97;;;;;;;;;;5053872;28;20274;-81
2022/08/28 12:17:20;;;;;;;12.38;5.22;;;;;;;;;;5054324;28;20053;-80
2022/08/28 12:20:18;;;;;;;9.60;5.13;;;;;;;;;;5045432;28;20384;-80
2022/08/28 12:23:22;;;;;;;12.95;4.63;;;;;;;;;;5048350;28;20037;-80
2022/08/28 12:26:16;;;;;;;15.48;4.90;;;;;;;;;;5035534;28;20477;-82
2022/08/28 12:29:02;;;;;;;15.55;4.88;;;;;;;;;;5041924;28;20404;-81
2022/08/28 12:32:10;;;;;;;9.73;4.68;;;;;;;;;;5037780;28;20465;-81
2022/08/28 12:34:58;;;;;;;9.75;4.90;;;;;;;;;;5057862;28;20053;-81
2022/08/28 12:37:59;;;;;;;9.25;5.18;;;;;;;;;;5047976;28;20040;-81
2022/08/28 12:40:51;;;;;;;11.30;5.10;;;;;;;;;;5053594;28;20388;-80
2022/08/28 12:43:43;;;;;;;13.52;5.00;;;;;;;;;;5054799;28;20372;-80
2022/08/28 12:46:36;;;;;;;9.27;4.93;;;;;;;;;;5048643;28;20057;-81
2022/08/28 12:49:34;;;;;;;8.35;4.78;;;;;;;;;;5038236;28;20037;-80
2022/08/28 12:52:22;;;;;;;11.10;5.25;;;;;;;;;;5046680;28;20037;-80
2022/08/28 12:55:08;;;;;;;10.85;4.45;;;;;;;;;;5051029;28;20045;-81
2022/08/28 12:57:53;;;;;;;13.95;4.65;;;;;;;;;;5054797;28;20463;-81
2022/08/28 13:00:55;;;;;;;10.35;5.00;;;;;;;;;;5050013;28;20376;-81
2022/08/28 13:03:48;;;;;;;9.73;4.90;;;;;;;;;;5052281;28;20041;-81
2022/08/28 13:06:38;;;;;;;10.50;4.68;;;;;;;;;;5051854;28;20041;-80
2022/08/28 13:09:26;;;;;;;10.05;4.55;;;;;;;;;;5056948;28;20482;-80
2022/08/28 13:12:22;;;;;;;16.00;4.40;;;;;;;;;;5064712;28;20045;-80
2022/08/28 13:15:08;;;;;;;12.07;5.32;;;;;;;;;;5059929;28;20388;-81
2022/08/28 13:17:54;;;;;;;15.90;5.00;;;;;;;;;;5051000;28;20033;-81
2022/08/28 13:20:40;;;;;;;11.73;4.85;;;;;;;;;;5054322;28;20041;-81
2022/08/28 13:23:28;;;;;;;12.95;5.50;;;;;;;;;;5058559;28;20045;-81
2022/08/28 13:26:32;;;;;;;11.20;5.50;;;;;;;;;;5040582;28;20038;-81
2022/08/28 13:29:20;;;;;;;12.10;4.85;;;;;;;;;;5039349;28;20046;-81
2022/08/28 13:32:13;;;;;;;10.88;4.57;;;;;;;;;;5034213;28;20037;-80
2022/08/28 13:35:29;;;;;;;9.90;4.50;;;;;;;;;;5033756;28;20472;-80
2022/08/28 13:38:21;;;;;;;12.82;5.20;;;;;;;;;;5033942;28;20417;-80
2022/08/28 13:41:08;;;;;;;11.85;4.53;;;;;;;;;;5037097;28;20038;-80
2022/08/28 13:43:53;;;;;;;10.18;4.25;;;;;;;;;;5034861;28;20041;-79
2022/08/28 13:46:39;;;;;;;10.20;4.47;;;;;;;;;;5053852;28;20049;-81
2022/08/28 13:49:28;;;;;;;9.23;4.60;;;;;;;;;;5060254;28;20464;-81
2022/08/28 13:52:14;;;;;;;8.43;4.15;;;;;;;;;;5046386;28;20045;-81
2022/08/28 13:55:01;;;;;;;12.70;4.60;;;;;;;;;;5049260;28;20060;-80
2022/08/28 13:57:46;;;;;;;9.93;4.30;;;;;;;;;;5050851;28;20375;-80
2022/08/28 14:00:38;;;;;;;10.52;4.72;;;;;;;;;;5053754;28;20053;-79
2022/08/28 14:03:36;;;;;;;12.48;4.68;;;;;;;;;;5044475;28;20042;-79
2022/08/28 14:06:22;;;;;;;11.25;4.70;;;;;;;;;;5040079;28;20381;-79
2022/08/28 14:09:11;;;;;;;10.50;4.82;;;;;;;;;;5040395;28;20037;-80
2022/08/28 14:11:57;;;;;;;12.23;4.25;;;;;;;;;;5040066;28;20041;-79
2022/08/28 14:14:42;;;;;;;8.82;4.88;;;;;;;;;;5033574;28;20041;-80
2022/08/28 14:17:28;;;;;;;7.13;4.22;;;;;;;;;;5036340;28;20049;-80
2022/08/28 14:20:14;;;;;;;15.18;4.68;;;;;;;;;;5037654;28;20057;-81
2022/08/28 14:22:59;;;;;;;10.68;4.80;;;;;;;;;;5044409;28;20049;-80
2022/08/28 14:25:46;;;;;;;9.90;4.35;;;;;;;;;;5048084;28;20041;-80
2022/08/28 14:28:31;;;;;;;13.10;4.47;;;;;;;;;;5057333;28;20037;-79
2022/08/28 14:31:17;;;;;;;11.32;4.10;;;;;;;;;;5057056;28;20033;-80
2022/08/28 14:34:04;;;;;;;10.45;4.70;;;;;;;;;;5055656;28;20044;-80
2022/08/28 14:36:53;;;;;;;7.45;4.07;;;;;;;;;;5049914;28;20036;-81
2022/08/28 14:39:39;;;;;;;9.38;3.97;;;;;;;;;;5056684;28;20041;-80
2022/08/28 14:42:25;;;;;;;9.23;4.70;;;;;;;;;;5063741;28;20384;-81
2022/08/28 14:45:11;;;;;;;10.32;4.10;;;;;;;;;;5050264;28;20042;-81
2022/08/28 14:47:56;;;;;;;11.73;4.43;;;;;;;;;;5062240;28;20040;-81
2022/08/28 14:50:44;;;;;;;9.38;4.28;;;;;;;;;;5057005;28;20379;-81
2022/08/28 14:53:30;;;;;;;7.93;4.03;;;;;;;;;;5057098;28;20052;-80
2022/08/28 14:56:16;;;;;;;10.55;4.25;;;;;;;;;;5056988;28;20368;-81
2022/08/28 14:59:04;;;;;;;9.20;5.20;;;;;;;;;;5057407;28;20044;-80
2022/08/28 15:01:51;;;;;;;10.15;5.28;;;;;;;;;;5062281;28;20049;-80
2022/08/28 15:04:36;;;;;;;9.50;4.30;;;;;;;;;;5056582;28;20049;-82
2022/08/28 15:07:22;;;;;;;11.65;4.68;;;;;;;;;;5063441;28;20060;-79
2022/08/28 15:10:12;;;;;;;9.77;4.60;;;;;;;;;;5062387;28;20040;-79
2022/08/28 15:12:57;;;;;;;14.52;5.18;;;;;;;;;;5036441;28;20042;-79
2022/08/28 15:15:42;;;;;;;10.30;4.47;;;;;;;;;;5051304;28;20049;-81
2022/08/28 15:18:28;;;;;;;9.13;4.78;;;;;;;;;;5055321;28;20037;-80
2022/08/28 15:21:23;;;;;;;8.95;4.65;;;;;;;;;;5049253;28;20052;-80
2022/08/28 15:24:09;;;;;;;10.75;4.63;;;;;;;;;;5036400;28;20038;-81
2022/08/28 15:26:56;;;;;;;10.10;4.55;;;;;;;;;;5043087;28;20045;-80
2022/08/28 15:29:41;;;;;;;15.60;4.55;;;;;;;;;;5035320;28;20037;-80
2022/08/28 15:32:27;;;;;;;7.07;4.70;;;;;;;;;;5044629;28;20044;-80
2022/08/28 15:35:14;;;;;;;12.57;5.60;;;;;;;;;;5062344;28;20045;-79
2022/08/28 15:38:02;;;;;;;9.00;5.13;;;;;;;;;;5053159;28;20049;-80
2022/08/28 15:43:59;;;;;;;6.95;4.85;;;;;;;;;;5049349;28;20037;-81
2022/08/28 15:46:53;;;;;;;11.48;4.78;;;;;;;;;;5055967;28;20041;-80
2022/08/28 15:49:39;;;;;;;9.80;4.50;;;;;;;;;;5062395;28;20044;-81
2022/08/28 15:52:24;;;;;;;10.73;4.68;;;;;;;;;;5055989;28;20044;-82
2022/08/28 15:55:09;;;;;;;13.18;5.50;;;;;;;;;;5059728;28;20044;-81
2022/08/28 15:57:56;;;;;;;9.80;4.30;;;;;;;;;;5058549;28;20049;-80
2022/08/28 16:00:41;;;;;;;10.32;5.07;;;;;;;;;;5045149;28;20053;-79
2022/08/28 16:03:26;;;;;;;9.55;4.70;;;;;;;;;;5045091;28;20045;-82
2022/08/28 16:06:16;;;;;;;10.38;4.32;;;;;;;;;;5050468;28;20045;-82
2022/08/28 16:09:04;;;;;;;12.18;5.05;;;;;;;;;;5057663;28;20459;-79
2022/08/28 16:11:49;;;;;;;13.73;4.82;;;;;;;;;;5048473;28;20037;-80
2022/08/28 16:14:35;;;;;;;9.50;4.97;;;;;;;;;;5049764;28;20041;-81
2022/08/28 16:17:20;;;;;;;9.65;4.80;;;;;;;;;;5054106;28;20036;-80
2022/08/28 16:20:06;;;;;;;13.23;4.63;;;;;;;;;;5060301;28;20045;-80
2022/08/28 16:22:51;;;;;;;12.85;5.15;;;;;;;;;;5055170;28;20037;-80
2022/08/28 16:25:38;;;;;;;11.43;5.22;;;;;;;;;;5053401;28;20044;-80
2022/08/28 16:28:24;;;;;;;11.30;5.38;;;;;;;;;;5061967;28;20044;-79
2022/08/28 16:31:11;;;;;;;7.60;5.32;;;;;;;;;;5061147;28;20045;-80
2022/08/28 16:33:57;;;;;;;11.00;5.65;;;;;;;;;;5059719;28;20045;-80
2022/08/28 16:36:42;;;;;;;8.30;5.15;;;;;;;;;;5059967;28;20045;-80
2022/08/28 16:39:28;;;;;;;15.07;5.47;;;;;;;;;;5059685;28;20045;-80
2022/08/28 16:42:14;;;;;;;11.65;5.38;;;;;;;;;;5042047;28;20053;-80
2022/08/28 16:45:00;;;;;;;12.63;5.38;;;;;;;;;;5041394;28;20049;-81
2022/08/28 16:47:46;;;;;;;11.77;5.53;;;;;;;;;;5055376;28;20049;-80
2022/08/28 16:50:31;;;;;;;10.23;6.10;;;;;;;;;;5061280;28;20048;-80
2022/08/28 16:53:16;;;;;;;14.77;5.78;;;;;;;;;;5056996;28;20037;-81
2022/08/28 16:56:02;;;;;;;14.07;5.80;;;;;;;;;;5052029;28;20041;-80
2022/08/28 16:58:48;;;;;;;11.68;5.60;;;;;;;;;;5054978;28;20049;-80